sensor_id;sensor_type;location;lat;lon;timestamp;temperature;humidity
54796;DHT22;40693;43.884;20.340;2022-09-09T00:04:34;588.80;2432.00
54796;DHT22;40693;43.884;20.340;2022-09-09T00:10:36;588.80;2432.00
54796;DHT22;40693;43.884;20.340;2022-09-09T00:16:04;564.10;2432.00
54796;DHT22;40693;43.884;20.340;2022-09-09T00:21:30;564.10;2432.00
54796;DHT22;40693;43.884;20.340;2022-09-09T00:23:58;564.10;2432.00
54796;DHT22;40693;43.884;20.340;2022-09-09T00:26:44;564.10;2432.00
54796;DHT22;40693;43.884;20.340;2022-09-09T00:31:38;564.10;2432.00
54796;DHT22;40693;43.884;20.340;2022-09-09T00:34:21;588.80;2432.00
54796;DHT22;40693;43.884;20.340;2022-09-09T00:36:50;564.00;2432.00
54796;DHT22;40693;43.884;20.340;2022-09-09T00:39:38;563.90;2432.00
54796;DHT22;40693;43.884;20.340;2022-09-09T00:42:23;563.80;2432.00
54796;DHT22;40693;43.884;20.340;2022-09-09T00:56:05;563.60;2432.00
54796;DHT22;40693;43.884;20.340;2022-09-09T00:58:34;563.70;2432.00
54796;DHT22;40693;43.884;20.340;2022-09-09T01:01:11;563.70;2432.00
54796;DHT22;40693;43.884;20.340;2022-09-09T01:06:26;563.70;2432.00
54796;DHT22;40693;43.884;20.340;2022-09-09T01:11:57;563.80;2432.00
54796;DHT22;40693;43.884;20.340;2022-09-09T01:14:48;563.90;2432.00
54796;DHT22;40693;43.884;20.340;2022-09-09T01:17:34;563.90;2432.00
54796;DHT22;40693;43.884;20.340;2022-09-09T01:20:15;563.90;2432.00
54796;DHT22;40693;43.884;20.340;2022-09-09T01:28:27;563.90;2432.00
54796;DHT22;40693;43.884;20.340;2022-09-09T01:30:55;563.90;2432.00
54796;DHT22;40693;43.884;20.340;2022-09-09T01:33:21;563.90;2432.00
54796;DHT22;40693;43.884;20.340;2022-09-09T01:38:36;563.80;2432.00
54796;DHT22;40693;43.884;20.340;2022-09-09T01:41:02;563.80;2432.00
54796;DHT22;40693;43.884;20.340;2022-09-09T01:43:29;563.60;2432.00
54796;DHT22;40693;43.884;20.340;2022-09-09T01:45:56;563.60;2432.00
54796;DHT22;40693;43.884;20.340;2022-09-09T01:48:25;563.60;2432.00
54796;DHT22;40693;43.884;20.340;2022-09-09T01:50:51;563.60;2432.00
54796;DHT22;40693;43.884;20.340;2022-09-09T01:53:18;563.60;2432.00
54796;DHT22;40693;43.884;20.340;2022-09-09T01:56:01;563.70;2432.00
54796;DHT22;40693;43.884;20.340;2022-09-09T02:03:56;563.80;2432.00
54796;DHT22;40693;43.884;20.340;2022-09-09T02:06:35;563.80;2432.00
54796;DHT22;40693;43.884;20.340;2022-09-09T02:09:05;563.80;2432.00
54796;DHT22;40693;43.884;20.340;2022-09-09T02:11:32;563.80;2432.00
54796;DHT22;40693;43.884;20.340;2022-09-09T02:14:22;563.90;2432.00
54796;DHT22;40693;43.884;20.340;2022-09-09T02:17:03;563.90;2432.00
54796;DHT22;40693;43.884;20.340;2022-09-09T02:19:34;563.90;2432.00
54796;DHT22;40693;43.884;20.340;2022-09-09T02:22:02;563.90;2432.00
54796;DHT22;40693;43.884;20.340;2022-09-09T02:24:32;563.90;2432.00
54796;DHT22;40693;43.884;20.340;2022-09-09T02:26:59;564.00;2432.00
54796;DHT22;40693;43.884;20.340;2022-09-09T02:29:31;564.00;2432.00
54796;DHT22;40693;43.884;20.340;2022-09-09T02:32:01;564.00;2432.00
54796;DHT22;40693;43.884;20.340;2022-09-09T02:34:29;564.00;2432.00
54796;DHT22;40693;43.884;20.340;2022-09-09T02:36:57;564.00;2432.00
54796;DHT22;40693;43.884;20.340;2022-09-09T02:39:25;564.10;2432.00
54796;DHT22;40693;43.884;20.340;2022-09-09T02:41:51;564.10;2432.00
54796;DHT22;40693;43.884;20.340;2022-09-09T02:44:18;564.10;2432.00
54796;DHT22;40693;43.884;20.340;2022-09-09T02:52:07;564.00;2432.00
54796;DHT22;40693;43.884;20.340;2022-09-09T02:54:40;564.00;2432.00
54796;DHT22;40693;43.884;20.340;2022-09-09T03:00:04;563.90;2432.00
54796;DHT22;40693;43.884;20.340;2022-09-09T03:02:30;563.80;2432.00
54796;DHT22;40693;43.884;20.340;2022-09-09T03:04:56;563.60;2432.00
54796;DHT22;40693;43.884;20.340;2022-09-09T03:07:22;563.60;2432.00
54796;DHT22;40693;43.884;20.340;2022-09-09T03:09:47;563.70;2432.00
54796;DHT22;40693;43.884;20.340;2022-09-09T03:12:14;563.70;2432.00
54796;DHT22;40693;43.884;20.340;2022-09-09T03:14:40;563.80;2432.00
54796;DHT22;40693;43.884;20.340;2022-09-09T03:17:06;563.80;2432.00
54796;DHT22;40693;43.884;20.340;2022-09-09T03:19:32;563.80;2432.00
54796;DHT22;40693;43.884;20.340;2022-09-09T03:21:58;563.80;2432.00
54796;DHT22;40693;43.884;20.340;2022-09-09T03:24:24;563.80;2432.00
54796;DHT22;40693;43.884;20.340;2022-09-09T03:26:50;563.80;2432.00
54796;DHT22;40693;43.884;20.340;2022-09-09T03:29:16;563.80;2432.00
54796;DHT22;40693;43.884;20.340;2022-09-09T03:31:44;563.80;2432.00
54796;DHT22;40693;43.884;20.340;2022-09-09T03:34:10;563.80;2432.00
54796;DHT22;40693;43.884;20.340;2022-09-09T03:36:36;563.80;2432.00
54796;DHT22;40693;43.884;20.340;2022-09-09T03:39:02;563.80;2432.00
54796;DHT22;40693;43.884;20.340;2022-09-09T03:41:29;563.80;2432.00
54796;DHT22;40693;43.884;20.340;2022-09-09T03:43:55;563.80;2432.00
54796;DHT22;40693;43.884;20.340;2022-09-09T03:46:23;563.80;2432.00
54796;DHT22;40693;43.884;20.340;2022-09-09T03:48:50;563.80;2432.00
54796;DHT22;40693;43.884;20.340;2022-09-09T03:51:17;563.90;2432.00
54796;DHT22;40693;43.884;20.340;2022-09-09T03:53:43;563.80;2432.00
54796;DHT22;40693;43.884;20.340;2022-09-09T03:56:10;563.80;2432.00
54796;DHT22;40693;43.884;20.340;2022-09-09T03:58:37;563.80;2432.00
54796;DHT22;40693;43.884;20.340;2022-09-09T04:03:30;563.80;2432.00
54796;DHT22;40693;43.884;20.340;2022-09-09T04:05:58;563.80;2432.00
54796;DHT22;40693;43.884;20.340;2022-09-09T04:08:25;563.90;2432.00
54796;DHT22;40693;43.884;20.340;2022-09-09T04:10:52;563.90;2432.00
54796;DHT22;40693;43.884;20.340;2022-09-09T04:13:18;564.00;2432.00
54796;DHT22;40693;43.884;20.340;2022-09-09T04:15:51;563.90;2432.00
54796;DHT22;40693;43.884;20.340;2022-09-09T04:18:17;563.90;2432.00
54796;DHT22;40693;43.884;20.340;2022-09-09T04:20:49;563.90;2432.00
54796;DHT22;40693;43.884;20.340;2022-09-09T04:23:16;563.80;2432.00
54796;DHT22;40693;43.884;20.340;2022-09-09T04:25:45;563.70;2432.00
54796;DHT22;40693;43.884;20.340;2022-09-09T04:28:13;563.60;2432.00
54796;DHT22;40693;43.884;20.340;2022-09-09T04:30:39;563.50;2432.00
54796;DHT22;40693;43.884;20.340;2022-09-09T04:33:06;563.50;2432.00
54796;DHT22;40693;43.884;20.340;2022-09-09T04:35:32;563.50;2432.00
54796;DHT22;40693;43.884;20.340;2022-09-09T04:37:58;563.30;2432.00
54796;DHT22;40693;43.884;20.340;2022-09-09T04:40:24;563.30;2432.00
54796;DHT22;40693;43.884;20.340;2022-09-09T04:42:51;563.30;2432.00
54796;DHT22;40693;43.884;20.340;2022-09-09T04:45:17;563.30;2432.00
54796;DHT22;40693;43.884;20.340;2022-09-09T04:47:44;563.30;2432.00
54796;DHT22;40693;43.884;20.340;2022-09-09T04:50:09;563.40;2432.00
54796;DHT22;40693;43.884;20.340;2022-09-09T04:52:35;563.50;2432.00
54796;DHT22;40693;43.884;20.340;2022-09-09T04:55:02;563.50;2432.00
54796;DHT22;40693;43.884;20.340;2022-09-09T04:57:27;563.50;2432.00
54796;DHT22;40693;43.884;20.340;2022-09-09T04:59:54;563.50;2432.00
54796;DHT22;40693;43.884;20.340;2022-09-09T05:02:20;563.60;2432.00
54796;DHT22;40693;43.884;20.340;2022-09-09T05:04:45;563.60;2432.00
54796;DHT22;40693;43.884;20.340;2022-09-09T05:07:11;563.60;2432.00
54796;DHT22;40693;43.884;20.340;2022-09-09T05:09:37;563.60;2432.00
54796;DHT22;40693;43.884;20.340;2022-09-09T05:12:03;563.60;2432.00
54796;DHT22;40693;43.884;20.340;2022-09-09T05:14:29;563.70;2432.00
54796;DHT22;40693;43.884;20.340;2022-09-09T05:16:55;563.60;2432.00
54796;DHT22;40693;43.884;20.340;2022-09-09T05:19:21;563.80;2432.00
54796;DHT22;40693;43.884;20.340;2022-09-09T05:21:47;563.70;2432.00
54796;DHT22;40693;43.884;20.340;2022-09-09T05:24:13;563.60;2432.00
54796;DHT22;40693;43.884;20.340;2022-09-09T05:26:40;563.50;2432.00
54796;DHT22;40693;43.884;20.340;2022-09-09T05:29:05;563.40;2432.00
54796;DHT22;40693;43.884;20.340;2022-09-09T05:31:31;563.30;2432.00
54796;DHT22;40693;43.884;20.340;2022-09-09T05:33:58;563.30;2432.00
54796;DHT22;40693;43.884;20.340;2022-09-09T05:36:24;563.30;2432.00
54796;DHT22;40693;43.884;20.340;2022-09-09T05:38:50;563.40;2432.00
54796;DHT22;40693;43.884;20.340;2022-09-09T05:41:19;563.50;2432.00
54796;DHT22;40693;43.884;20.340;2022-09-09T05:43:46;563.50;2432.00
54796;DHT22;40693;43.884;20.340;2022-09-09T05:46:18;563.50;2432.00
54796;DHT22;40693;43.884;20.340;2022-09-09T05:48:46;563.60;2432.00
54796;DHT22;40693;43.884;20.340;2022-09-09T05:51:14;563.50;2432.00
54796;DHT22;40693;43.884;20.340;2022-09-09T05:53:41;563.60;2432.00
54796;DHT22;40693;43.884;20.340;2022-09-09T05:56:14;563.60;2432.00
54796;DHT22;40693;43.884;20.340;2022-09-09T05:58:40;563.60;2432.00
54796;DHT22;40693;43.884;20.340;2022-09-09T06:01:06;563.60;2432.00
54796;DHT22;40693;43.884;20.340;2022-09-09T06:03:34;563.60;2432.00
54796;DHT22;40693;43.884;20.340;2022-09-09T06:06:05;563.60;2432.00
54796;DHT22;40693;43.884;20.340;2022-09-09T06:08:33;563.60;2432.00
54796;DHT22;40693;43.884;20.340;2022-09-09T06:11:09;563.60;2432.00
54796;DHT22;40693;43.884;20.340;2022-09-09T06:13:36;563.70;2432.00
54796;DHT22;40693;43.884;20.340;2022-09-09T06:16:11;563.60;2432.00
54796;DHT22;40693;43.884;20.340;2022-09-09T06:18:38;563.50;2432.00
54796;DHT22;40693;43.884;20.340;2022-09-09T06:21:06;563.50;2432.00
54796;DHT22;40693;43.884;20.340;2022-09-09T06:23:33;563.50;2432.00
54796;DHT22;40693;43.884;20.340;2022-09-09T06:26:15;563.60;2432.00
54796;DHT22;40693;43.884;20.340;2022-09-09T06:28:44;563.60;2432.00
54796;DHT22;40693;43.884;20.340;2022-09-09T06:31:12;563.60;2432.00
54796;DHT22;40693;43.884;20.340;2022-09-09T06:33:42;563.60;2432.00
54796;DHT22;40693;43.884;20.340;2022-09-09T06:36:14;563.60;2432.00
54796;DHT22;40693;43.884;20.340;2022-09-09T06:38:41;563.70;2432.00
54796;DHT22;40693;43.884;20.340;2022-09-09T06:41:09;563.60;2432.00
54796;DHT22;40693;43.884;20.340;2022-09-09T06:43:35;563.70;2432.00
54796;DHT22;40693;43.884;20.340;2022-09-09T06:46:07;563.60;2432.00
54796;DHT22;40693;43.884;20.340;2022-09-09T06:48:34;563.60;2432.00
54796;DHT22;40693;43.884;20.340;2022-09-09T06:51:05;563.60;2432.00
54796;DHT22;40693;43.884;20.340;2022-09-09T06:53:34;563.60;2432.00
54796;DHT22;40693;43.884;20.340;2022-09-09T06:58:50;563.90;2432.00
54796;DHT22;40693;43.884;20.340;2022-09-09T07:01:19;563.90;2432.00
54796;DHT22;40693;43.884;20.340;2022-09-09T07:03:47;564.00;2432.00
54796;DHT22;40693;43.884;20.340;2022-09-09T07:06:27;564.10;2432.00
54796;DHT22;40693;43.884;20.340;2022-09-09T07:08:56;588.80;2432.00
54796;DHT22;40693;43.884;20.340;2022-09-09T07:11:24;588.90;2432.00
54796;DHT22;40693;43.884;20.340;2022-09-09T07:13:51;588.90;2432.00
54796;DHT22;40693;43.884;20.340;2022-09-09T07:16:18;589.00;2432.00
54796;DHT22;40693;43.884;20.340;2022-09-09T07:18:44;589.10;2432.00
54796;DHT22;40693;43.884;20.340;2022-09-09T07:21:13;589.10;2432.00
54796;DHT22;40693;43.884;20.340;2022-09-09T07:23:39;589.20;2432.00
54796;DHT22;40693;43.884;20.340;2022-09-09T07:26:14;589.20;2432.00
54796;DHT22;40693;43.884;20.340;2022-09-09T07:28:40;589.20;2432.00
54796;DHT22;40693;43.884;20.340;2022-09-09T07:31:19;589.30;2432.00
54796;DHT22;40693;43.884;20.340;2022-09-09T07:33:46;589.40;2432.00
54796;DHT22;40693;43.884;20.340;2022-09-09T07:36:16;589.50;2432.00
54796;DHT22;40693;43.884;20.340;2022-09-09T07:38:48;589.60;2432.00
54796;DHT22;40693;43.884;20.340;2022-09-09T07:41:23;589.70;2432.00
54796;DHT22;40693;43.884;20.340;2022-09-09T07:43:50;589.70;2432.00
54796;DHT22;40693;43.884;20.340;2022-09-09T07:46:18;614.40;2432.00
54796;DHT22;40693;43.884;20.340;2022-09-09T07:48:46;614.50;2432.00
54796;DHT22;40693;43.884;20.340;2022-09-09T07:51:18;614.70;2432.00
54796;DHT22;40693;43.884;20.340;2022-09-09T07:53:50;614.70;2432.00
54796;DHT22;40693;43.884;20.340;2022-09-09T07:56:17;614.80;2432.00
54796;DHT22;40693;43.884;20.340;2022-09-09T07:58:46;614.80;2432.00
54796;DHT22;40693;43.884;20.340;2022-09-09T08:01:18;614.90;2432.00
54796;DHT22;40693;43.884;20.340;2022-09-09T08:03:44;615.00;2432.00
54796;DHT22;40693;43.884;20.340;2022-09-09T08:06:11;615.10;2432.00
54796;DHT22;40693;43.884;20.340;2022-09-09T08:08:38;615.20;2432.00
54796;DHT22;40693;43.884;20.340;2022-09-09T08:11:13;615.20;2432.00
54796;DHT22;40693;43.884;20.340;2022-09-09T08:13:40;615.20;2432.00
54796;DHT22;40693;43.884;20.340;2022-09-09T08:16:07;640.00;2432.00
54796;DHT22;40693;43.884;20.340;2022-09-09T08:18:33;640.00;2432.00
54796;DHT22;40693;43.884;20.340;2022-09-09T08:21:14;640.00;2432.00
54796;DHT22;40693;43.884;20.340;2022-09-09T08:23:44;640.00;2432.00
54796;DHT22;40693;43.884;20.340;2022-09-09T08:26:13;640.10;2432.00
54796;DHT22;40693;43.884;20.340;2022-09-09T08:28:40;640.30;2432.00
54796;DHT22;40693;43.884;20.340;2022-09-09T08:33:38;640.40;2432.00
54796;DHT22;40693;43.884;20.340;2022-09-09T08:36:05;640.40;2432.00
54796;DHT22;40693;43.884;20.340;2022-09-09T08:38:31;640.40;2432.00
54796;DHT22;40693;43.884;20.340;2022-09-09T08:41:12;640.50;2432.00
54796;DHT22;40693;43.884;20.340;2022-09-09T08:43:43;640.50;2432.00
54796;DHT22;40693;43.884;20.340;2022-09-09T08:48:58;640.70;2432.00
54796;DHT22;40693;43.884;20.340;2022-09-09T08:51:27;665.60;2432.00
54796;DHT22;40693;43.884;20.340;2022-09-09T08:53:58;665.80;2432.00
54796;DHT22;40693;43.884;20.340;2022-09-09T08:56:26;666.00;2432.00
54796;DHT22;40693;43.884;20.340;2022-09-09T08:58:54;666.20;2432.00
54796;DHT22;40693;43.884;20.340;2022-09-09T09:02:01;666.20;2432.00
54796;DHT22;40693;43.884;20.340;2022-09-09T09:08:05;666.40;2432.00
54796;DHT22;40693;43.884;20.340;2022-09-09T09:13:00;691.40;2432.00
54796;DHT22;40693;43.884;20.340;2022-09-09T09:15:31;691.50;2432.00
54796;DHT22;40693;43.884;20.340;2022-09-09T09:17:59;691.70;2432.00
54796;DHT22;40693;43.884;20.340;2022-09-09T09:23:33;691.90;2432.00
54796;DHT22;40693;43.884;20.340;2022-09-09T09:26:07;692.10;2432.00
54796;DHT22;40693;43.884;20.340;2022-09-09T09:28:35;716.80;2432.00
54796;DHT22;40693;43.884;20.340;2022-09-09T09:31:10;716.80;2432.00
54796;DHT22;40693;43.884;20.340;2022-09-09T09:36:12;716.80;2432.00
54796;DHT22;40693;43.884;20.340;2022-09-09T09:38:58;716.80;2432.00
54796;DHT22;40693;43.884;20.340;2022-09-09T09:41:43;691.90;2432.00
54796;DHT22;40693;43.884;20.340;2022-09-09T09:44:29;691.80;2432.00
54796;DHT22;40693;43.884;20.340;2022-09-09T09:47:11;691.60;2432.00
54796;DHT22;40693;43.884;20.340;2022-09-09T09:49:38;691.60;2432.00
54796;DHT22;40693;43.884;20.340;2022-09-09T09:52:06;691.50;2432.00
54796;DHT22;40693;43.884;20.340;2022-09-09T09:54:37;691.40;2432.00
54796;DHT22;40693;43.884;20.340;2022-09-09T09:57:11;691.40;2432.00
54796;DHT22;40693;43.884;20.340;2022-09-09T09:59:38;691.40;2432.00
54796;DHT22;40693;43.884;20.340;2022-09-09T10:04:46;691.40;2432.00
54796;DHT22;40693;43.884;20.340;2022-09-09T10:07:20;691.40;2432.00
54796;DHT22;40693;43.884;20.340;2022-09-09T10:09:53;691.50;2432.00
54796;DHT22;40693;43.884;20.340;2022-09-09T10:15:15;691.60;2432.00
54796;DHT22;40693;43.884;20.340;2022-09-09T10:18:17;691.60;2432.00
54796;DHT22;40693;43.884;20.340;2022-09-09T10:20:54;691.60;2432.00
54796;DHT22;40693;43.884;20.340;2022-09-09T10:48:36;692.00;2432.00
54796;DHT22;40693;43.884;20.340;2022-09-09T10:56:37;717.00;2432.00
54796;DHT22;40693;43.884;20.340;2022-09-09T10:59:16;717.20;2432.00
54796;DHT22;40693;43.884;20.340;2022-09-09T11:04:27;717.70;2432.00
54796;DHT22;40693;43.884;20.340;2022-09-09T11:06:56;742.50;2432.00
54796;DHT22;40693;43.884;20.340;2022-09-09T11:09:30;742.60;2432.00
54796;DHT22;40693;43.884;20.340;2022-09-09T11:11:58;742.80;2432.00
54796;DHT22;40693;43.884;20.340;2022-09-09T11:17:15;742.60;2432.00
54796;DHT22;40693;43.884;20.340;2022-09-09T11:19:43;742.60;2432.00
54796;DHT22;40693;43.884;20.340;2022-09-09T11:38:58;742.90;2432.00
54796;DHT22;40693;43.884;20.340;2022-09-09T11:41:33;742.90;2432.00
54796;DHT22;40693;43.884;20.340;2022-09-09T11:44:00;743.00;2432.00
54796;DHT22;40693;43.884;20.340;2022-09-09T11:46:38;743.00;2432.00
54796;DHT22;40693;43.884;20.340;2022-09-09T11:49:06;743.10;2432.00
54796;DHT22;40693;43.884;20.340;2022-09-09T11:51:33;743.30;2432.00
54796;DHT22;40693;43.884;20.340;2022-09-09T11:54:04;768.00;2432.00
54796;DHT22;40693;43.884;20.340;2022-09-09T11:56:48;768.10;2380.80
54796;DHT22;40693;43.884;20.340;2022-09-09T11:59:22;743.20;2380.80
54796;DHT22;40693;43.884;20.340;2022-09-09T12:02:12;743.10;2406.40
54796;DHT22;40693;43.884;20.340;2022-09-09T12:05:07;743.20;2432.00
54796;DHT22;40693;43.884;20.340;2022-09-09T12:07:56;743.30;2432.00
54796;DHT22;40693;43.884;20.340;2022-09-09T12:10:29;743.10;2432.00
54796;DHT22;40693;43.884;20.340;2022-09-09T12:12:55;743.10;2432.00
54796;DHT22;40693;43.884;20.340;2022-09-09T12:15:28;743.20;2432.00
54796;DHT22;40693;43.884;20.340;2022-09-09T12:17:56;743.10;2432.00
54796;DHT22;40693;43.884;20.340;2022-09-09T12:20:31;743.00;2432.00
54796;DHT22;40693;43.884;20.340;2022-09-09T12:23:25;743.00;2432.00
54796;DHT22;40693;43.884;20.340;2022-09-09T12:36:38;743.10;2432.00
54796;DHT22;40693;43.884;20.340;2022-09-09T12:39:18;743.10;2432.00
54796;DHT22;40693;43.884;20.340;2022-09-09T12:41:52;743.10;2406.40
54796;DHT22;40693;43.884;20.340;2022-09-09T12:44:24;743.10;2432.00
54796;DHT22;40693;43.884;20.340;2022-09-09T12:46:51;743.10;2432.00
54796;DHT22;40693;43.884;20.340;2022-09-09T12:49:36;743.10;2432.00
54796;DHT22;40693;43.884;20.340;2022-09-09T12:52:33;743.10;2432.00
54796;DHT22;40693;43.884;20.340;2022-09-09T12:55:04;743.10;2432.00
54796;DHT22;40693;43.884;20.340;2022-09-09T12:57:37;743.10;2432.00
54796;DHT22;40693;43.884;20.340;2022-09-09T13:00:06;743.10;2432.00
54796;DHT22;40693;43.884;20.340;2022-09-09T13:02:34;743.00;2432.00
54796;DHT22;40693;43.884;20.340;2022-09-09T13:05:17;743.00;2432.00
54796;DHT22;40693;43.884;20.340;2022-09-09T13:07:44;743.00;2432.00
54796;DHT22;40693;43.884;20.340;2022-09-09T13:10:14;742.90;2432.00
54796;DHT22;40693;43.884;20.340;2022-09-09T13:12:40;743.00;2432.00
54796;DHT22;40693;43.884;20.340;2022-09-09T13:15:22;743.10;2432.00
54796;DHT22;40693;43.884;20.340;2022-09-09T13:17:54;743.30;2432.00
54796;DHT22;40693;43.884;20.340;2022-09-09T13:20:21;743.30;2406.40
54796;DHT22;40693;43.884;20.340;2022-09-09T13:22:48;768.00;2380.80
54796;DHT22;40693;43.884;20.340;2022-09-09T13:25:20;768.10;2380.80
54796;DHT22;40693;43.884;20.340;2022-09-09T13:27:57;768.10;2329.60
54796;DHT22;40693;43.884;20.340;2022-09-09T13:30:30;768.20;2278.40
54796;DHT22;40693;43.884;20.340;2022-09-09T13:38:15;768.90;2252.80
54796;DHT22;40693;43.884;20.340;2022-09-09T13:40:58;768.90;2227.20
54796;DHT22;40693;43.884;20.340;2022-09-09T13:43:26;793.60;2201.60
54796;DHT22;40693;43.884;20.340;2022-09-09T13:46:00;793.60;2201.60
54796;DHT22;40693;43.884;20.340;2022-09-09T13:48:27;793.70;2201.60
54796;DHT22;40693;43.884;20.340;2022-09-09T13:51:02;793.70;2150.40
54796;DHT22;40693;43.884;20.340;2022-09-09T13:53:30;793.80;2176.00
54796;DHT22;40693;43.884;20.340;2022-09-09T13:55:57;794.10;2201.60
54796;DHT22;40693;43.884;20.340;2022-09-09T13:58:23;794.20;2201.60
54796;DHT22;40693;43.884;20.340;2022-09-09T14:00:51;794.50;2099.20
54796;DHT22;40693;43.884;20.340;2022-09-09T14:03:17;794.50;2048.00
54796;DHT22;40693;43.884;20.340;2022-09-09T14:05:44;794.50;2073.60
54796;DHT22;40693;43.884;20.340;2022-09-09T14:08:24;794.40;2048.00
54796;DHT22;40693;43.884;20.340;2022-09-09T14:10:51;794.40;2073.60
54796;DHT22;40693;43.884;20.340;2022-09-09T14:13:17;794.40;2073.60
54796;DHT22;40693;43.884;20.340;2022-09-09T14:15:43;794.30;2073.60
54796;DHT22;40693;43.884;20.340;2022-09-09T14:18:12;794.20;2048.00
54796;DHT22;40693;43.884;20.340;2022-09-09T14:20:39;794.00;2048.00
54796;DHT22;40693;43.884;20.340;2022-09-09T14:23:05;793.90;2048.00
54796;DHT22;40693;43.884;20.340;2022-09-09T14:25:30;793.70;2048.00
54796;DHT22;40693;43.884;20.340;2022-09-09T14:27:57;768.70;2099.20
54796;DHT22;40693;43.884;20.340;2022-09-09T14:30:22;768.50;2099.20
54796;DHT22;40693;43.884;20.340;2022-09-09T14:32:48;768.20;2124.80
54796;DHT22;40693;43.884;20.340;2022-09-09T14:35:14;768.00;2150.40
54796;DHT22;40693;43.884;20.340;2022-09-09T14:37:40;768.00;2227.20
54796;DHT22;40693;43.884;20.340;2022-09-09T14:40:06;768.00;2227.20
54796;DHT22;40693;43.884;20.340;2022-09-09T14:42:32;768.10;2227.20
54796;DHT22;40693;43.884;20.340;2022-09-09T14:44:58;768.10;2150.40
54796;DHT22;40693;43.884;20.340;2022-09-09T14:47:24;743.30;2176.00
54796;DHT22;40693;43.884;20.340;2022-09-09T14:49:49;743.10;2227.20
54796;DHT22;40693;43.884;20.340;2022-09-09T14:52:15;743.10;2252.80
54796;DHT22;40693;43.884;20.340;2022-09-09T14:54:41;742.90;2304.00
54796;DHT22;40693;43.884;20.340;2022-09-09T14:57:07;742.80;2304.00
54796;DHT22;40693;43.884;20.340;2022-09-09T14:59:33;742.70;2355.20
54796;DHT22;40693;43.884;20.340;2022-09-09T15:01:59;742.70;2355.20
54796;DHT22;40693;43.884;20.340;2022-09-09T15:04:29;742.70;2406.40
54796;DHT22;40693;43.884;20.340;2022-09-09T15:06:55;742.60;2406.40
54796;DHT22;40693;43.884;20.340;2022-09-09T15:09:21;742.60;2432.00
54796;DHT22;40693;43.884;20.340;2022-09-09T15:11:46;742.60;2432.00
54796;DHT22;40693;43.884;20.340;2022-09-09T15:14:12;742.50;2432.00
54796;DHT22;40693;43.884;20.340;2022-09-09T15:16:38;742.50;2432.00
54796;DHT22;40693;43.884;20.340;2022-09-09T15:19:05;742.50;2432.00
54796;DHT22;40693;43.884;20.340;2022-09-09T15:21:33;742.50;2432.00
54796;DHT22;40693;43.884;20.340;2022-09-09T15:24:00;742.60;2432.00
54796;DHT22;40693;43.884;20.340;2022-09-09T15:26:26;742.50;2432.00
54796;DHT22;40693;43.884;20.340;2022-09-09T15:28:53;742.40;2432.00
54796;DHT22;40693;43.884;20.340;2022-09-09T15:31:20;742.40;2432.00
54796;DHT22;40693;43.884;20.340;2022-09-09T15:33:54;717.70;2432.00
54796;DHT22;40693;43.884;20.340;2022-09-09T15:36:27;717.50;2432.00
54796;DHT22;40693;43.884;20.340;2022-09-09T15:38:54;717.40;2432.00
54796;DHT22;40693;43.884;20.340;2022-09-09T15:41:21;717.30;2432.00
54796;DHT22;40693;43.884;20.340;2022-09-09T15:43:49;717.30;2432.00
54796;DHT22;40693;43.884;20.340;2022-09-09T15:48:52;717.20;2432.00
54796;DHT22;40693;43.884;20.340;2022-09-09T15:51:18;717.10;2432.00
54796;DHT22;40693;43.884;20.340;2022-09-09T15:53:44;716.90;2432.00
54796;DHT22;40693;43.884;20.340;2022-09-09T15:56:10;716.80;2432.00
54796;DHT22;40693;43.884;20.340;2022-09-09T15:58:36;716.80;2432.00
54796;DHT22;40693;43.884;20.340;2022-09-09T16:01:03;692.10;2432.00
54796;DHT22;40693;43.884;20.340;2022-09-09T16:03:36;692.10;2432.00
54796;DHT22;40693;43.884;20.340;2022-09-09T16:06:03;692.00;2432.00
54796;DHT22;40693;43.884;20.340;2022-09-09T16:08:42;692.00;2432.00
54796;DHT22;40693;43.884;20.340;2022-09-09T16:11:14;691.80;2432.00
54796;DHT22;40693;43.884;20.340;2022-09-09T16:13:42;691.80;2432.00
54796;DHT22;40693;43.884;20.340;2022-09-09T16:16:10;691.80;2432.00
54796;DHT22;40693;43.884;20.340;2022-09-09T16:18:39;691.70;2432.00
54796;DHT22;40693;43.884;20.340;2022-09-09T16:21:06;691.60;2432.00
54796;DHT22;40693;43.884;20.340;2022-09-09T16:23:36;691.60;2432.00
54796;DHT22;40693;43.884;20.340;2022-09-09T16:26:01;691.60;2432.00
54796;DHT22;40693;43.884;20.340;2022-09-09T16:28:29;691.60;2432.00
54796;DHT22;40693;43.884;20.340;2022-09-09T16:30:55;691.70;2432.00
54796;DHT22;40693;43.884;20.340;2022-09-09T16:33:21;691.70;2432.00
54796;DHT22;40693;43.884;20.340;2022-09-09T16:35:47;691.70;2432.00
54796;DHT22;40693;43.884;20.340;2022-09-09T16:38:14;691.80;2432.00
54796;DHT22;40693;43.884;20.340;2022-09-09T16:40:40;691.90;2432.00
54796;DHT22;40693;43.884;20.340;2022-09-09T16:43:07;691.90;2432.00
54796;DHT22;40693;43.884;20.340;2022-09-09T16:45:33;691.90;2432.00
54796;DHT22;40693;43.884;20.340;2022-09-09T16:47:59;691.90;2432.00
54796;DHT22;40693;43.884;20.340;2022-09-09T16:50:30;691.90;2432.00
54796;DHT22;40693;43.884;20.340;2022-09-09T16:52:56;692.00;2432.00
54796;DHT22;40693;43.884;20.340;2022-09-09T16:55:22;692.00;2432.00
54796;DHT22;40693;43.884;20.340;2022-09-09T16:57:47;692.10;2432.00
54796;DHT22;40693;43.884;20.340;2022-09-09T17:00:15;692.00;2432.00
54796;DHT22;40693;43.884;20.340;2022-09-09T17:02:43;692.00;2432.00
54796;DHT22;40693;43.884;20.340;2022-09-09T17:05:09;692.00;2432.00
54796;DHT22;40693;43.884;20.340;2022-09-09T17:07:35;692.00;2432.00
54796;DHT22;40693;43.884;20.340;2022-09-09T17:10:01;691.90;2432.00
54796;DHT22;40693;43.884;20.340;2022-09-09T17:12:27;691.90;2432.00
54796;DHT22;40693;43.884;20.340;2022-09-09T17:14:53;691.80;2432.00
54796;DHT22;40693;43.884;20.340;2022-09-09T17:17:20;691.70;2432.00
54796;DHT22;40693;43.884;20.340;2022-09-09T17:19:46;691.70;2432.00
54796;DHT22;40693;43.884;20.340;2022-09-09T17:22:12;691.80;2432.00
54796;DHT22;40693;43.884;20.340;2022-09-09T17:24:38;691.80;2432.00